Time;durP1;ratioP1;P1;durP2;ratioP2;P2;SDS_P1;SDS_P2;PMS_P1;PMS_P2;Temp;Humidity;BMP_temperature;BMP_pressure;BME280_temperature;BME280_humidity;BME280_pressure;Samples;Min_cycle;Max_cycle;Signal;HPM_P1;HPM_P2
2022/10/22 00:02:23;;;;;;;44.13;28.33;;;14.10;99.90;;;;;;4327063;28;10000344;-75
2022/10/22 00:04:49;;;;;;;48.47;29.33;;;14.10;99.90;;;;;;5026762;28;20382;-75
2022/10/22 00:07:16;;;;;;;52.95;31.25;;;14.00;99.90;;;;;;5030752;28;20110;-75
2022/10/22 00:09:42;;;;;;;49.92;30.80;;;14.00;99.90;;;;;;5037471;28;20057;-75
2022/10/22 00:12:08;;;;;;;46.42;29.27;;;14.00;99.90;;;;;;5024691;28;20045;-75
2022/10/22 00:14:34;;;;;;;53.13;30.45;;;14.00;99.90;;;;;;5035291;28;20024;-75
2022/10/22 00:16:59;;;;;;;44.25;27.42;;;14.00;99.90;;;;;;5031007;28;20025;-75
2022/10/22 00:19:26;;;;;;;48.33;28.27;;;14.00;99.90;;;;;;5027682;28;20033;-75
2022/10/22 00:21:52;;;;;;;49.67;28.58;;;14.10;99.90;;;;;;5030144;28;20174;-75
2022/10/22 00:24:17;;;;;;;49.40;29.38;;;14.00;99.90;;;;;;5027076;28;20112;-75
2022/10/22 00:26:43;;;;;;;46.83;29.10;;;14.00;99.90;;;;;;5023542;28;20045;-75
2022/10/22 00:29:08;;;;;;;47.85;28.58;;;14.00;99.90;;;;;;5024251;28;20049;-75
2022/10/22 00:31:34;;;;;;;48.42;30.08;;;14.00;99.90;;;;;;5026333;28;20030;-75
2022/10/22 00:34:00;;;;;;;48.58;29.67;;;14.00;99.90;;;;;;5036616;28;20029;-75
2022/10/22 00:36:26;;;;;;;48.95;30.67;;;14.00;99.90;;;;;;5029695;28;20045;-75
2022/10/22 00:38:52;;;;;;;56.15;31.98;;;14.00;99.90;;;;;;5040655;28;20025;-75
2022/10/22 00:41:17;;;;;;;60.38;32.30;;;14.00;99.90;;;;;;5022890;28;20029;-75
2022/10/22 00:43:59;;;;;;;58.70;32.95;;;14.10;99.90;;;;;;5024465;28;20026;-76
2022/10/22 00:46:25;;;;;;;57.80;33.10;;;14.00;99.90;;;;;;5032734;28;20481;-75
2022/10/22 00:48:51;;;;;;;59.33;33.03;;;14.10;99.90;;;;;;5029433;28;20039;-75
2022/10/22 00:51:20;;;;;;;56.70;33.47;;;14.00;99.90;;;;;;5030552;28;20033;-75
2022/10/22 00:53:54;;;;;;;61.28;32.53;;;14.00;99.90;;;;;;5027548;28;20029;-75
2022/10/22 00:56:21;;;;;;;56.47;32.92;;;14.00;99.90;;;;;;5023881;28;20033;-76
2022/10/22 00:58:51;;;;;;;58.95;34.08;;;14.00;99.90;;;;;;5028073;28;20548;-75
2022/10/22 01:01:21;;;;;;;53.58;32.38;;;14.00;99.90;;;;;;5033571;28;20035;-76
2022/10/22 01:03:48;;;;;;;63.95;34.72;;;14.00;99.90;;;;;;5026550;28;20489;-75
2022/10/22 01:06:22;;;;;;;68.22;35.60;;;14.00;99.90;;;;;;5029942;28;20505;-76
2022/10/22 01:09:15;;;;;;;62.75;33.50;;;14.00;99.90;;;;;;5025519;28;20733;-76
2022/10/22 01:12:14;;;;;;;63.95;33.38;;;14.00;99.90;;;;;;5027455;28;20061;-75
2022/10/22 01:15:14;;;;;;;63.33;34.40;;;14.00;99.90;;;;;;5031506;28;20087;-75
2022/10/22 01:18:01;;;;;;;60.42;32.88;;;14.10;99.90;;;;;;5029177;28;20041;-75
2022/10/22 01:21:01;;;;;;;61.42;34.10;;;14.00;99.90;;;;;;5028470;28;20442;-75
2022/10/22 01:23:48;;;;;;;59.33;33.25;;;14.00;99.90;;;;;;5030040;28;20032;-75
2022/10/22 01:26:22;;;;;;;65.25;34.10;;;14.00;99.90;;;;;;5031403;28;20106;-75
2022/10/22 01:29:10;;;;;;;58.80;33.10;;;14.00;99.90;;;;;;5036119;28;20122;-75
2022/10/22 01:31:44;;;;;;;59.05;32.05;;;14.00;99.90;;;;;;5038137;28;20025;-75
2022/10/22 01:34:15;;;;;;;60.45;33.47;;;14.00;99.90;;;;;;5036202;28;20036;-75
2022/10/22 01:36:42;;;;;;;64.88;33.70;;;14.00;99.90;;;;;;5030505;28;20117;-75
2022/10/22 01:39:09;;;;;;;67.57;34.78;;;14.10;99.90;;;;;;5028750;28;20034;-75
2022/10/22 01:41:38;;;;;;;58.95;32.33;;;14.10;99.90;;;;;;5034844;28;20072;-75
2022/10/22 01:44:03;;;;;;;60.70;31.65;;;14.00;99.90;;;;;;5033559;28;20037;-75
2022/10/22 01:46:29;;;;;;;57.22;31.92;;;14.00;99.90;;;;;;5034074;28;20033;-75
2022/10/22 01:49:35;;;;;;;52.67;30.60;;;14.00;99.90;;;;;;5042088;28;20083;-75
2022/10/22 01:52:35;;;;;;;50.25;27.63;;;14.00;99.90;;;;;;5025268;28;20069;-75
2022/10/22 01:55:25;;;;;;;48.67;28.60;;;14.00;99.90;;;;;;5025196;28;20044;-75
2022/10/22 01:58:02;;;;;;;47.03;28.35;;;14.00;99.90;;;;;;5034483;28;20529;-76
2022/10/22 02:00:27;;;;;;;38.22;23.77;;;13.90;99.90;;;;;;5027955;28;20025;-75
2022/10/22 02:03:29;;;;;;;41.00;25.83;;;13.90;99.90;;;;;;5028296;28;20032;-75
2022/10/22 02:06:00;;;;;;;46.83;26.80;;;13.90;99.90;;;;;;5027278;28;20091;-75
2022/10/22 02:08:32;;;;;;;46.40;27.52;;;13.90;99.90;;;;;;5036510;28;20129;-75
2022/10/22 02:10:59;;;;;;;59.75;31.23;;;14.00;99.90;;;;;;5031966;28;20021;-76
2022/10/22 02:13:43;;;;;;;47.78;27.92;;;14.00;99.90;;;;;;5032487;28;20671;-76
2022/10/22 02:16:15;;;;;;;57.08;29.55;;;13.90;99.90;;;;;;5037910;28;20641;-76
2022/10/22 02:18:43;;;;;;;45.42;28.20;;;13.90;99.90;;;;;;5030878;28;20112;-75
2022/10/22 02:21:09;;;;;;;45.45;26.58;;;13.90;99.90;;;;;;5038640;28;20037;-76
2022/10/22 02:23:35;;;;;;;46.85;27.00;;;13.80;99.90;;;;;;5036822;28;20117;-75
2022/10/22 02:26:10;;;;;;;50.50;28.88;;;13.80;99.90;;;;;;5029520;28;20116;-75
2022/10/22 02:28:43;;;;;;;49.22;30.30;;;13.80;99.90;;;;;;5035319;28;20040;-76
2022/10/22 02:31:12;;;;;;;;;;;13.80;99.90;;;;;;5031101;28;20035;-75
2022/10/22 02:33:43;;;;;;;54.40;29.77;;;13.80;99.90;;;;;;5028313;28;19962;-76
2022/10/22 02:36:10;;;;;;;62.42;32.42;;;13.80;99.90;;;;;;5027862;28;20029;-75
2022/10/22 02:38:37;;;;;;;51.50;29.75;;;13.80;99.90;;;;;;5036153;28;20033;-75
2022/10/22 02:41:03;;;;;;;41.60;25.20;;;13.80;99.90;;;;;;5033636;28;20029;-75
2022/10/22 02:43:28;;;;;;;43.75;26.27;;;13.70;99.90;;;;;;5030932;28;20072;-75
2022/10/22 02:45:54;;;;;;;50.92;29.67;;;13.70;99.90;;;;;;5022866;28;20065;-76
2022/10/22 02:48:20;;;;;;;53.00;31.02;;;13.70;99.90;;;;;;5035755;28;20716;-75
2022/10/22 02:50:45;;;;;;;61.97;32.17;;;13.70;99.90;;;;;;5027201;28;20049;-75
2022/10/22 02:53:11;;;;;;;47.38;28.15;;;13.70;99.90;;;;;;5029648;28;20029;-75
2022/10/22 02:55:37;;;;;;;50.10;29.90;;;13.80;99.90;;;;;;5034761;28;20025;-75
2022/10/22 02:58:02;;;;;;;55.72;29.85;;;13.70;99.90;;;;;;5032649;28;20123;-75
2022/10/22 03:00:28;;;;;;;51.20;30.27;;;13.70;99.90;;;;;;5034140;28;20259;-75
2022/10/22 03:02:53;;;;;;;61.85;30.90;;;13.70;99.90;;;;;;5024812;28;20439;-75
2022/10/22 03:05:19;;;;;;;55.50;30.48;;;13.70;99.90;;;;;;5024163;28;20032;-75
2022/10/22 03:07:45;;;;;;;60.88;31.20;;;13.70;99.90;;;;;;5041075;28;20627;-75
2022/10/22 03:10:10;;;;;;;60.67;31.52;;;13.70;99.90;;;;;;5040107;28;20477;-75
2022/10/22 03:12:36;;;;;;;56.22;32.03;;;13.70;99.90;;;;;;5033957;28;20025;-75
2022/10/22 03:15:02;;;;;;;64.75;33.42;;;13.70;99.90;;;;;;5036492;28;20033;-75
2022/10/22 03:17:27;;;;;;;70.10;33.53;;;13.60;99.90;;;;;;5035333;28;20033;-75
2022/10/22 03:19:53;;;;;;;57.53;31.23;;;13.70;99.90;;;;;;5036336;28;20171;-76
2022/10/22 03:22:27;;;;;;;69.50;34.03;;;13.70;99.90;;;;;;5028642;28;20030;-75
2022/10/22 03:24:57;;;;;;;68.55;33.92;;;13.70;99.90;;;;;;5036122;28;20083;-76
2022/10/22 03:27:24;;;;;;;62.28;31.98;;;13.80;99.90;;;;;;5038426;28;20033;-76
2022/10/22 03:29:51;;;;;;;65.22;32.83;;;13.80;99.90;;;;;;5035436;28;20440;-76
2022/10/22 03:32:17;;;;;;;60.42;32.20;;;13.70;99.90;;;;;;5028045;28;20071;-75
2022/10/22 03:34:43;;;;;;;59.40;32.53;;;13.70;99.90;;;;;;5030992;28;20025;-75
2022/10/22 03:37:09;;;;;;;56.22;31.23;;;13.70;99.90;;;;;;5030294;28;20033;-76
2022/10/22 03:39:35;;;;;;;59.00;32.28;;;13.70;99.90;;;;;;5034476;28;20474;-75
2022/10/22 03:42:03;;;;;;;65.28;32.25;;;13.70;99.90;;;;;;5032925;28;20647;-75
2022/10/22 03:44:29;;;;;;;64.45;32.10;;;13.70;99.90;;;;;;5024403;28;21120;-75
2022/10/22 03:46:55;;;;;;;61.00;31.60;;;13.70;99.90;;;;;;5032818;28;20029;-76
2022/10/22 03:49:21;;;;;;;64.88;31.73;;;13.70;99.90;;;;;;5025416;28;20025;-76
2022/10/22 03:51:46;;;;;;;64.78;31.88;;;13.70;99.90;;;;;;5038080;28;20029;-75
2022/10/22 03:54:12;;;;;;;58.42;30.45;;;13.70;99.90;;;;;;5029303;28;20396;-75
2022/10/22 03:56:37;;;;;;;65.13;33.05;;;13.70;99.90;;;;;;5031379;28;20040;-75
2022/10/22 03:59:03;;;;;;;60.78;32.25;;;13.70;99.90;;;;;;5038288;28;20032;-75
2022/10/22 04:01:30;;;;;;;58.38;31.33;;;13.70;99.90;;;;;;5020658;28;20397;-75
2022/10/22 04:03:56;;;;;;;64.53;31.27;;;13.70;99.90;;;;;;5032869;28;20033;-75
2022/10/22 04:06:22;;;;;;;70.82;32.55;;;13.70;99.90;;;;;;5039103;28;20033;-75
2022/10/22 04:08:48;;;;;;;67.05;32.80;;;13.60;99.90;;;;;;5028096;28;20035;-75
2022/10/22 04:11:15;;;;;;;64.55;31.23;;;13.70;99.90;;;;;;5025981;28;20021;-75
2022/10/22 04:13:41;;;;;;;59.75;30.67;;;13.70;99.90;;;;;;5026247;28;20491;-75
2022/10/22 04:16:07;;;;;;;69.10;33.08;;;13.70;99.90;;;;;;5037911;28;20732;-76
2022/10/22 04:18:33;;;;;;;72.80;32.90;;;13.70;99.90;;;;;;5037665;28;20119;-75
2022/10/22 04:20:58;;;;;;;70.97;33.33;;;13.70;99.90;;;;;;5030818;28;20037;-76
2022/10/22 04:23:24;;;;;;;60.55;31.77;;;13.60;99.90;;;;;;5034971;28;20052;-75
2022/10/22 04:25:55;;;;;;;60.70;31.42;;;13.60;99.90;;;;;;5026844;28;20471;-75
2022/10/22 04:28:21;;;;;;;72.50;32.65;;;13.60;99.90;;;;;;5030489;28;20486;-75
2022/10/22 04:30:47;;;;;;;66.05;31.13;;;13.60;99.90;;;;;;5032775;28;20117;-76
2022/10/22 04:33:12;;;;;;;66.40;33.08;;;13.60;99.90;;;;;;5022895;28;20029;-76
2022/10/22 04:35:38;;;;;;;66.60;31.38;;;13.60;99.90;;;;;;5027184;28;20061;-76
2022/10/22 04:38:04;;;;;;;50.47;27.83;;;13.50;99.90;;;;;;5040063;28;20155;-75
2022/10/22 04:40:30;;;;;;;72.70;31.80;;;13.50;99.90;;;;;;5038910;28;20021;-75
2022/10/22 04:42:55;;;;;;;60.35;30.08;;;13.50;99.90;;;;;;5040294;28;20453;-75
2022/10/22 04:45:21;;;;;;;57.22;28.85;;;13.50;99.90;;;;;;5034359;28;20041;-76
2022/10/22 04:47:46;;;;;;;60.38;30.17;;;13.50;99.90;;;;;;5026564;28;20383;-76
2022/10/22 04:50:12;;;;;;;66.50;32.05;;;13.50;99.90;;;;;;5031991;28;20056;-76
2022/10/22 04:52:38;;;;;;;65.53;31.75;;;13.50;99.90;;;;;;5040982;28;20280;-76
2022/10/22 04:55:04;;;;;;;65.93;30.95;;;13.50;99.90;;;;;;5028225;28;20018;-75
2022/10/22 04:57:30;;;;;;;63.15;31.30;;;13.50;99.90;;;;;;5037525;28;20025;-75
2022/10/22 04:59:56;;;;;;;62.55;30.88;;;13.60;99.90;;;;;;5033225;28;20631;-75
2022/10/22 05:02:21;;;;;;;70.82;32.83;;;13.50;99.90;;;;;;5026934;28;20044;-75
2022/10/22 05:04:47;;;;;;;63.65;31.42;;;13.50;99.90;;;;;;5023499;28;20099;-75
2022/10/22 05:07:13;;;;;;;62.80;32.78;;;13.50;99.90;;;;;;5039228;28;20075;-75
2022/10/22 05:09:39;;;;;;;72.40;33.75;;;13.50;99.90;;;;;;5033147;28;20480;-75
2022/10/22 05:12:05;;;;;;;68.10;33.63;;;13.50;99.90;;;;;;5032590;28;20017;-75
2022/10/22 05:14:31;;;;;;;75.85;35.53;;;13.50;99.90;;;;;;5029177;28;20030;-75
2022/10/22 05:16:57;;;;;;;80.80;37.72;;;13.50;99.90;;;;;;5030956;28;20037;-75
2022/10/22 05:19:26;;;;;;;74.82;35.53;;;13.50;99.90;;;;;;5027603;28;20073;-75
2022/10/22 05:21:53;;;;;;;84.10;36.42;;;13.50;99.90;;;;;;5026239;28;20128;-75
2022/10/22 05:24:19;;;;;;;78.22;36.05;;;13.50;99.90;;;;;;5033806;28;20025;-75
2022/10/22 05:26:48;;;;;;;85.50;39.10;;;13.50;99.90;;;;;;5033936;28;20124;-75
2022/10/22 05:29:14;;;;;;;79.00;38.25;;;13.60;99.90;;;;;;5030378;28;20038;-75
2022/10/22 05:31:40;;;;;;;101.05;41.17;;;13.60;99.90;;;;;;5033112;28;20013;-75
2022/10/22 05:34:05;;;;;;;90.63;38.50;;;13.60;99.90;;;;;;5030339;28;20029;-76
2022/10/22 05:36:31;;;;;;;86.18;37.97;;;13.60;99.90;;;;;;5024219;28;20750;-76
2022/10/22 05:38:57;;;;;;;88.15;38.58;;;13.70;99.90;;;;;;5031554;28;20116;-75
2022/10/22 05:41:24;;;;;;;89.75;37.85;;;13.70;99.90;;;;;;5027587;28;20401;-75
2022/10/22 05:43:50;;;;;;;97.00;40.45;;;13.70;99.90;;;;;;5023090;28;20444;-75
2022/10/22 05:46:21;;;;;;;92.57;37.05;;;13.70;99.90;;;;;;5025240;28;20120;-75
2022/10/22 05:48:56;;;;;;;89.05;39.00;;;13.70;99.90;;;;;;5032007;28;20028;-76
2022/10/22 05:51:23;;;;;;;82.00;36.85;;;13.70;99.90;;;;;;5029767;28;20021;-76
2022/10/22 05:53:57;;;;;;;90.07;36.38;;;13.70;99.90;;;;;;5027161;28;20329;-76
2022/10/22 05:56:23;;;;;;;80.13;37.03;;;13.70;99.90;;;;;;5035429;28;20399;-76
2022/10/22 05:58:49;;;;;;;90.47;39.83;;;13.80;99.90;;;;;;5036891;28;20021;-76
2022/10/22 06:01:14;;;;;;;86.68;39.85;;;13.80;99.90;;;;;;5030641;28;20520;-75
2022/10/22 06:03:41;;;;;;;99.55;42.58;;;13.80;99.90;;;;;;5030552;28;20032;-76
2022/10/22 06:06:34;;;;;;;93.50;39.85;;;13.80;99.90;;;;;;5033269;28;20041;-74
2022/10/22 06:09:22;;;;;;;81.55;37.78;;;13.80;99.90;;;;;;5024287;28;20432;-73
2022/10/22 06:11:49;;;;;;;84.32;37.67;;;13.70;99.90;;;;;;5027413;28;20030;-73
2022/10/22 06:14:15;;;;;;;79.35;37.55;;;13.80;99.90;;;;;;5029132;28;20106;-73
2022/10/22 06:16:42;;;;;;;77.63;37.03;;;13.80;99.90;;;;;;5029030;28;20481;-73
2022/10/22 06:19:08;;;;;;;81.10;37.50;;;13.80;99.90;;;;;;5044141;28;20060;-73
2022/10/22 06:21:34;;;;;;;75.80;36.00;;;13.80;99.90;;;;;;5028054;28;20033;-73
2022/10/22 06:24:01;;;;;;;65.15;31.98;;;13.80;99.90;;;;;;5043502;28;20041;-73
2022/10/22 06:26:27;;;;;;;59.65;31.30;;;13.80;99.90;;;;;;5046248;28;20029;-73
2022/10/22 06:28:54;;;;;;;57.53;29.27;;;13.80;99.90;;;;;;5034740;28;20083;-73
2022/10/22 06:31:20;;;;;;;48.40;26.15;;;13.90;99.90;;;;;;5028250;28;20025;-74
2022/10/22 06:33:46;;;;;;;47.17;24.75;;;13.90;99.90;;;;;;5027398;28;20028;-73
2022/10/22 06:36:14;;;;;;;44.03;23.17;;;13.80;99.90;;;;;;5044977;28;20499;-73
2022/10/22 06:38:40;;;;;;;37.85;21.60;;;13.80;99.90;;;;;;5042855;28;20017;-74
2022/10/22 06:41:08;;;;;;;32.05;18.30;;;13.80;99.90;;;;;;5028542;28;20040;-74
2022/10/22 06:43:34;;;;;;;23.88;14.10;;;13.80;99.90;;;;;;5032810;28;20111;-74
2022/10/22 06:46:02;;;;;;;24.40;15.13;;;13.80;99.90;;;;;;5031269;28;20219;-72
2022/10/22 06:48:28;;;;;;;21.35;14.43;;;13.80;99.90;;;;;;5036063;28;20033;-72
2022/10/22 06:50:54;;;;;;;17.95;11.35;;;13.80;99.90;;;;;;5036441;28;20051;-72
2022/10/22 06:53:19;;;;;;;20.73;11.63;;;13.70;99.90;;;;;;4683991;28;10000255;-72
2022/10/22 06:55:45;;;;;;;21.60;10.48;;;13.70;99.90;;;;;;5021396;28;20112;-72
2022/10/22 06:58:11;;;;;;;14.50;10.48;;;13.70;99.90;;;;;;5039199;28;20464;-72
2022/10/22 07:00:36;;;;;;;29.30;22.10;;;13.70;99.90;;;;;;5034085;28;20481;-72
2022/10/22 07:03:02;;;;;;;17.52;10.90;;;13.70;99.90;;;;;;5033330;28;20084;-72
2022/10/22 07:05:28;;;;;;;13.50;11.02;;;13.70;99.90;;;;;;5029708;28;20551;-72
2022/10/22 07:07:53;;;;;;;21.42;12.43;;;13.70;99.90;;;;;;5039132;28;20037;-72
2022/10/22 07:10:19;;;;;;;21.27;12.77;;;13.60;99.90;;;;;;5030172;28;20025;-72
2022/10/22 07:12:44;;;;;;;16.92;10.68;;;13.60;99.90;;;;;;5037493;28;20501;-72
2022/10/22 07:15:10;;;;;;;12.13;9.02;;;13.60;99.90;;;;;;5024864;28;20038;-72
2022/10/22 07:17:36;;;;;;;13.20;8.90;;;13.60;99.90;;;;;;5032329;28;20116;-72
2022/10/22 07:20:02;;;;;;;12.68;9.93;;;13.60;99.90;;;;;;5032808;28;20473;-72
2022/10/22 07:22:28;;;;;;;15.57;9.50;;;13.60;99.90;;;;;;5034465;28;20044;-72
2022/10/22 07:24:53;;;;;;;17.88;10.63;;;13.60;99.90;;;;;;5023901;28;20037;-72
2022/10/22 07:27:19;;;;;;;15.43;10.73;;;13.60;99.90;;;;;;5025020;28;20425;-73
2022/10/22 07:29:45;;;;;;;13.68;10.85;;;13.60;99.90;;;;;;5028793;28;20361;-73
2022/10/22 07:32:11;;;;;;;14.55;10.52;;;13.60;99.90;;;;;;5024767;28;20037;-74
2022/10/22 07:34:36;;;;;;;13.82;11.15;;;13.50;99.90;;;;;;5030232;28;20060;-74
2022/10/22 07:37:02;;;;;;;13.30;11.68;;;13.50;99.90;;;;;;5024882;28;20071;-75
2022/10/22 07:39:28;;;;;;;18.00;12.40;;;13.50;99.90;;;;;;5023933;28;20063;-73
2022/10/22 07:41:53;;;;;;;18.08;11.63;;;13.60;99.90;;;;;;5029597;28;20048;-73
2022/10/22 07:44:19;;;;;;;16.90;10.57;;;13.60;99.90;;;;;;5025569;28;20033;-74
2022/10/22 07:46:44;;;;;;;15.82;11.05;;;13.70;99.90;;;;;;5038380;28;20072;-73
2022/10/22 07:49:10;;;;;;;19.50;13.18;;;13.60;99.90;;;;;;5036246;28;20044;-73
2022/10/22 07:51:36;;;;;;;13.70;11.00;;;13.60;99.90;;;;;;5034077;28;20040;-73
2022/10/22 07:54:02;;;;;;;19.10;11.55;;;13.70;99.90;;;;;;5034798;28;20021;-73
2022/10/22 07:56:28;;;;;;;21.52;11.27;;;13.70;99.90;;;;;;5038617;28;20029;-73
2022/10/22 07:58:53;;;;;;;16.90;11.43;;;13.80;99.90;;;;;;5032344;28;20036;-74
2022/10/22 08:01:19;;;;;;;17.77;10.55;;;13.80;99.90;;;;;;5024759;28;20504;-73
2022/10/22 08:03:44;;;;;;;13.45;9.98;;;13.80;99.90;;;;;;5033302;28;20037;-73
2022/10/22 08:06:12;;;;;;;17.27;9.85;;;13.80;99.90;;;;;;5032347;28;20128;-73
2022/10/22 08:08:38;;;;;;;14.55;9.77;;;13.90;99.90;;;;;;5032424;28;20029;-72
2022/10/22 08:11:03;;;;;;;14.98;10.00;;;13.90;99.90;;;;;;5031446;28;20025;-72
2022/10/22 08:13:29;;;;;;;14.77;11.00;;;13.90;99.90;;;;;;5024817;28;20106;-72
2022/10/22 08:15:57;;;;;;;17.05;11.23;;;13.90;99.90;;;;;;5024082;28;20052;-72
2022/10/22 08:18:22;;;;;;;16.38;10.30;;;14.00;99.90;;;;;;5025050;28;20037;-73
2022/10/22 08:20:48;;;;;;;10.65;8.02;;;13.90;99.90;;;;;;5024540;28;20381;-72
2022/10/22 08:23:13;;;;;;;12.55;7.50;;;14.00;99.90;;;;;;5031017;28;20389;-72
2022/10/22 08:25:39;;;;;;;11.40;7.90;;;14.00;99.90;;;;;;5026205;28;20025;-70
2022/10/22 08:28:05;;;;;;;11.00;8.00;;;14.00;99.90;;;;;;5027324;28;20468;-71
2022/10/22 08:30:32;;;;;;;13.80;8.10;;;14.00;99.90;;;;;;5025102;28;20087;-71
2022/10/22 08:32:58;;;;;;;14.63;9.15;;;14.10;99.90;;;;;;5035528;28;20036;-71
2022/10/22 08:35:24;;;;;;;13.93;9.40;;;14.00;99.90;;;;;;5024479;28;20392;-72
2022/10/22 08:37:49;;;;;;;15.07;8.93;;;14.10;99.90;;;;;;5024753;28;20069;-72
2022/10/22 08:40:43;;;;;;;13.45;8.90;;;14.10;99.90;;;;;;5035961;28;20029;-71
2022/10/22 08:43:36;;;;;;;14.13;8.45;;;14.10;99.90;;;;;;5025402;28;20052;-71
2022/10/22 08:46:20;;;;;;;19.25;8.73;;;14.20;99.90;;;;;;5028169;28;20563;-71
2022/10/22 08:48:49;;;;;;;11.25;8.73;;;14.30;99.90;;;;;;5029935;28;20386;-71
2022/10/22 08:51:19;;;;;;;14.52;9.20;;;14.30;99.90;;;;;;5024430;28;20033;-70
2022/10/22 08:54:21;;;;;;;21.85;9.52;;;14.40;99.90;;;;;;5030806;28;20033;-71
2022/10/22 08:57:11;;;;;;;16.55;11.45;;;14.40;99.90;;;;;;5035482;28;20036;-71
2022/10/22 08:59:49;;;;;;;18.10;11.90;;;14.40;99.90;;;;;;5039653;28;20258;-71
2022/10/22 09:02:50;;;;;;;22.13;15.70;;;14.50;99.90;;;;;;5035388;28;20024;-71
2022/10/22 09:05:28;;;;;;;17.50;12.20;;;14.50;99.90;;;;;;5033160;28;20051;-71
2022/10/22 09:07:54;;;;;;;14.57;9.57;;;14.60;99.90;;;;;;5024242;28;20107;-71
2022/10/22 09:10:24;;;;;;;17.17;9.38;;;14.60;99.90;;;;;;5024141;28;20037;-71
2022/10/22 09:12:50;;;;;;;16.35;9.13;;;14.60;99.90;;;;;;5033221;28;20028;-71
2022/10/22 09:15:17;;;;;;;14.10;10.98;;;14.70;99.90;;;;;;5033004;28;20396;-71
2022/10/22 09:18:09;;;;;;;25.35;16.40;;;14.70;99.90;;;;;;5025532;28;20569;-71
2022/10/22 09:20:55;;;;;;;32.15;15.75;;;14.80;99.90;;;;;;5031673;28;20052;-71
2022/10/22 09:23:24;;;;;;;22.08;12.63;;;14.80;99.90;;;;;;5040754;28;20036;-71
2022/10/22 09:25:51;;;;;;;34.10;27.05;;;14.90;99.90;;;;;;5034130;28;20504;-72
2022/10/22 09:28:17;;;;;;;17.20;10.95;;;15.00;99.90;;;;;;5026868;28;20033;-71
2022/10/22 09:30:42;;;;;;;17.50;9.50;;;15.10;99.90;;;;;;5028549;28;20503;-72
2022/10/22 09:33:08;;;;;;;14.85;8.20;;;15.10;99.90;;;;;;5035822;28;20103;-71
2022/10/22 09:36:04;;;;;;;13.80;8.23;;;15.20;99.90;;;;;;5033797;28;20053;-71
2022/10/22 09:38:48;;;;;;;13.93;8.07;;;15.20;99.90;;;;;;5037397;28;20125;-72
2022/10/22 09:41:15;;;;;;;14.95;7.43;;;15.20;99.90;;;;;;5032855;28;20053;-71
2022/10/22 09:43:40;;;;;;;15.10;6.78;;;15.30;99.90;;;;;;5042523;28;20576;-71
2022/10/22 09:46:14;;;;;;;13.65;8.82;;;15.40;99.90;;;;;;5036717;28;20052;-71
2022/10/22 09:48:41;;;;;;;;;;;15.60;99.90;;;;;;5027652;28;20039;-71
2022/10/22 09:51:15;;;;;;;29.77;17.90;;;15.80;99.90;;;;;;5029854;28;19950;-71
2022/10/22 09:53:42;;;;;;;23.60;16.58;;;16.00;99.90;;;;;;5032345;28;20162;-71
2022/10/22 09:56:25;;;;;;;22.02;14.23;;;16.30;99.90;;;;;;5040154;28;20033;-71
2022/10/22 09:58:51;;;;;;;34.08;18.80;;;16.50;99.90;;;;;;5038083;28;20472;-71
2022/10/22 10:01:24;;;;;;;29.27;17.02;;;16.40;99.90;;;;;;5037176;28;20061;-71
2022/10/22 10:03:49;;;;;;;20.00;10.40;;;16.40;99.90;;;;;;5039093;28;20558;-70
2022/10/22 10:06:22;;;;;;;13.00;8.13;;;16.30;99.90;;;;;;5033740;28;20033;-70
2022/10/22 10:08:48;;;;;;;21.83;6.75;;;16.20;99.90;;;;;;5030609;28;20407;-70
2022/10/22 10:11:22;;;;;;;18.48;9.38;;;16.10;99.90;;;;;;5028581;28;20037;-70
2022/10/22 10:14:06;;;;;;;24.95;9.60;;;16.00;99.90;;;;;;5038141;28;20698;-70
2022/10/22 10:16:57;;;;;;;14.75;6.55;;;15.90;99.90;;;;;;5043667;28;20060;-71
2022/10/22 10:20:09;;;;;;;13.25;6.22;;;15.90;99.90;;;;;;5032123;28;20036;-70
2022/10/22 10:22:38;;;;;;;10.38;7.32;;;15.90;99.90;;;;;;5034691;28;20045;-70
2022/10/22 10:25:25;;;;;;;15.70;8.13;;;16.00;99.90;;;;;;5026343;28;20429;-71
2022/10/22 10:28:02;;;;;;;15.07;6.90;;;16.00;99.90;;;;;;5034619;28;20043;-71
2022/10/22 10:30:31;;;;;;;11.48;4.47;;;16.10;99.90;;;;;;5029607;28;20037;-70
2022/10/22 10:33:20;;;;;;;9.48;4.53;;;16.20;99.90;;;;;;5028648;28;20080;-70
2022/10/22 10:36:08;;;;;;;19.42;4.63;;;16.30;99.90;;;;;;5036608;28;20037;-70
2022/10/22 10:38:37;;;;;;;10.63;4.85;;;16.30;99.90;;;;;;5038449;28;20032;-70
2022/10/22 10:41:06;;;;;;;9.73;3.35;;;16.30;99.90;;;;;;5035967;28;20029;-71
2022/10/22 10:43:57;;;;;;;11.05;5.38;;;16.40;99.90;;;;;;5023628;28;20336;-71
2022/10/22 10:46:52;;;;;;;13.23;4.00;;;16.40;99.90;;;;;;5027701;28;20045;-71
2022/10/22 10:49:22;;;;;;;14.18;7.30;;;16.40;99.90;;;;;;5032338;28;20586;-71
2022/10/22 10:52:08;;;;;;;11.68;3.10;;;16.20;99.90;;;;;;5036158;28;20560;-71
2022/10/22 10:55:06;;;;;;;14.10;5.43;;;16.30;99.90;;;;;;5037908;28;20766;-72
2022/10/22 10:57:54;;;;;;;7.57;2.63;;;16.40;99.90;;;;;;5031619;28;20073;-71
2022/10/22 11:00:21;;;;;;;9.65;2.78;;;16.60;99.90;;;;;;5037151;28;20032;-71
2022/10/22 11:03:08;;;;;;;14.10;5.32;;;16.60;99.90;;;;;;5027650;28;20048;-71
2022/10/22 11:05:47;;;;;;;12.02;5.20;;;16.80;99.90;;;;;;5025311;28;20679;-71
2022/10/22 11:08:29;;;;;;;10.80;4.45;;;17.00;99.90;;;;;;5037771;28;20033;-70
2022/10/22 11:11:00;;;;;;;8.05;3.33;;;17.20;99.90;;;;;;5028723;28;20027;-72
2022/10/22 11:13:42;;;;;;;10.30;3.72;;;17.50;99.90;;;;;;5038032;28;20848;-71
2022/10/22 11:16:22;;;;;;;15.50;4.38;;;17.50;99.90;;;;;;5027157;28;20037;-71
2022/10/22 11:18:53;;;;;;;12.50;3.70;;;17.50;99.90;;;;;;5027226;28;20265;-71
2022/10/22 11:21:34;;;;;;;11.32;2.90;;;17.50;99.90;;;;;;5038291;28;20044;-71
2022/10/22 11:24:21;;;;;;;8.40;2.83;;;17.40;99.90;;;;;;5034574;28;20060;-71
2022/10/22 11:26:55;;;;;;;10.35;2.90;;;17.40;99.90;;;;;;5034132;28;20159;-71
2022/10/22 11:29:24;;;;;;;9.10;3.03;;;17.50;99.90;;;;;;5032718;28;20045;-71
2022/10/22 11:31:53;;;;;;;7.53;3.22;;;17.60;99.90;;;;;;5028878;28;20036;-72
2022/10/22 11:34:43;;;;;;;14.73;2.38;;;17.90;99.90;;;;;;5032206;28;20030;-72
2022/10/22 11:37:10;;;;;;;6.75;2.40;;;18.20;99.90;;;;;;5025780;28;20489;-72
2022/10/22 11:39:58;;;;;;;11.38;2.63;;;18.50;99.90;;;;;;5029372;28;20144;-72
2022/10/22 11:42:33;;;;;;;9.15;2.10;;;18.70;99.90;;;;;;5028280;28;20121;-72
2022/10/22 11:45:00;;;;;;;8.75;2.88;;;18.80;99.90;;;;;;5025410;28;20489;-71
2022/10/22 11:47:31;;;;;;;10.35;2.30;;;18.90;99.90;;;;;;5033670;28;20041;-71
2022/10/22 11:50:16;;;;;;;6.90;2.30;;;19.10;99.90;;;;;;5025921;28;20030;-71
2022/10/22 11:52:53;;;;;;;8.25;2.20;;;19.30;99.90;;;;;;5029163;28;20083;-71
2022/10/22 11:55:50;;;;;;;4.55;1.85;;;19.30;99.90;;;;;;5039102;28;20040;-71
2022/10/22 11:58:28;;;;;;;9.73;2.42;;;19.10;99.90;;;;;;5043406;28;20021;-71
2022/10/22 12:01:01;;;;;;;7.45;2.03;;;18.90;99.90;;;;;;5034915;28;20112;-72
2022/10/22 12:03:30;;;;;;;8.25;1.90;;;18.80;99.90;;;;;;5033205;28;20017;-71
2022/10/22 12:06:10;;;;;;;6.78;1.83;;;18.50;99.90;;;;;;5025963;28;20219;-71
2022/10/22 12:09:03;;;;;;;6.05;2.47;;;18.30;99.90;;;;;;5038240;28;20033;-71
2022/10/22 12:11:48;;;;;;;7.20;1.98;;;18.20;99.90;;;;;;5036124;28;20116;-72
2022/10/22 12:14:33;;;;;;;9.57;2.10;;;18.00;99.90;;;;;;5025742;28;20123;-71
2022/10/22 12:17:16;;;;;;;8.50;2.25;;;17.90;99.90;;;;;;5026328;28;20048;-71
2022/10/22 12:20:06;;;;;;;7.13;1.90;;;17.80;99.90;;;;;;5029649;28;20558;-70
2022/10/22 12:22:36;;;;;;;8.30;2.30;;;18.00;99.90;;;;;;5025832;28;20037;-71
2022/10/22 12:25:14;;;;;;;9.63;2.03;;;18.10;99.90;;;;;;5039367;28;20025;-71
2022/10/22 12:27:40;;;;;;;4.35;1.73;;;18.10;99.90;;;;;;5035375;28;20037;-71
2022/10/22 12:30:22;;;;;;;13.43;2.10;;;18.00;99.90;;;;;;5041441;28;20033;-71
2022/10/22 12:32:52;;;;;;;9.00;1.70;;;18.10;99.90;;;;;;5035318;28;20044;-70
2022/10/22 12:35:21;;;;;;;5.55;1.80;;;18.20;99.90;;;;;;5030579;28;20025;-70
2022/10/22 12:37:59;;;;;;;8.32;2.15;;;18.30;99.90;;;;;;5042584;28;20032;-71
2022/10/22 12:40:32;;;;;;;5.43;1.50;;;18.30;99.90;;;;;;5033124;28;20029;-70
2022/10/22 12:43:09;;;;;;;6.35;1.60;;;18.20;99.90;;;;;;5020549;28;20040;-70
2022/10/22 12:45:35;;;;;;;9.95;1.83;;;18.10;99.90;;;;;;5025718;28;20038;-70
2022/10/22 12:48:05;;;;;;;8.25;1.52;;;18.00;99.90;;;;;;5027941;28;20713;-70
2022/10/22 12:50:42;;;;;;;9.40;1.70;;;17.90;99.90;;;;;;5025191;28;20037;-72
2022/10/22 12:53:24;;;;;;;5.25;1.20;;;17.80;99.90;;;;;;5032197;28;20048;-72